sensor_id;sensor_type;location;lat;lon;timestamp;temperature;humidity
64034;SHT31;50280;49.864;8.638;2022-07-17T00:00:12;17.97;47.64
64034;SHT31;50280;49.864;8.638;2022-07-17T00:02:46;17.96;47.78
64034;SHT31;50280;49.864;8.638;2022-07-17T00:05:19;17.90;47.81
64034;SHT31;50280;49.864;8.638;2022-07-17T00:07:51;17.87;47.81
64034;SHT31;50280;49.864;8.638;2022-07-17T00:10:24;17.82;48.12
64034;SHT31;50280;49.864;8.638;2022-07-17T00:12:58;17.76;48.29
64034;SHT31;50280;49.864;8.638;2022-07-17T00:15:30;17.68;48.18
64034;SHT31;50280;49.864;8.638;2022-07-17T00:18:03;17.64;48.35
64034;SHT31;50280;49.864;8.638;2022-07-17T00:20:36;17.58;48.36
64034;SHT31;50280;49.864;8.638;2022-07-17T00:23:08;17.54;48.50
64034;SHT31;50280;49.864;8.638;2022-07-17T00:25:41;17.51;48.55
64034;SHT31;50280;49.864;8.638;2022-07-17T00:28:14;17.45;48.75
64034;SHT31;50280;49.864;8.638;2022-07-17T00:30:47;17.40;48.69
64034;SHT31;50280;49.864;8.638;2022-07-17T00:33:19;17.35;49.02
64034;SHT31;50280;49.864;8.638;2022-07-17T00:35:52;17.31;49.10
64034;SHT31;50280;49.864;8.638;2022-07-17T00:38:24;17.31;49.14
64034;SHT31;50280;49.864;8.638;2022-07-17T00:40:58;17.28;49.26
64034;SHT31;50280;49.864;8.638;2022-07-17T00:43:32;17.22;49.59
64034;SHT31;50280;49.864;8.638;2022-07-17T00:46:05;17.20;49.51
64034;SHT31;50280;49.864;8.638;2022-07-17T00:48:37;17.16;49.59
64034;SHT31;50280;49.864;8.638;2022-07-17T00:51:10;17.13;49.69
64034;SHT31;50280;49.864;8.638;2022-07-17T00:53:42;17.09;49.87
64034;SHT31;50280;49.864;8.638;2022-07-17T00:56:17;17.03;50.14
64034;SHT31;50280;49.864;8.638;2022-07-17T00:58:54;16.99;50.05
64034;SHT31;50280;49.864;8.638;2022-07-17T01:01:27;16.96;50.24
64034;SHT31;50280;49.864;8.638;2022-07-17T01:04:01;16.92;50.26
64034;SHT31;50280;49.864;8.638;2022-07-17T01:06:33;16.92;50.37
64034;SHT31;50280;49.864;8.638;2022-07-17T01:09:09;16.92;50.66
64034;SHT31;50280;49.864;8.638;2022-07-17T01:11:42;16.86;50.47
64034;SHT31;50280;49.864;8.638;2022-07-17T01:14:16;16.85;50.70
64034;SHT31;50280;49.864;8.638;2022-07-17T01:16:50;16.79;50.54
64034;SHT31;50280;49.864;8.638;2022-07-17T01:19:23;16.82;50.46
64034;SHT31;50280;49.864;8.638;2022-07-17T01:21:56;16.79;50.71
64034;SHT31;50280;49.864;8.638;2022-07-17T01:24:29;16.73;50.64
64034;SHT31;50280;49.864;8.638;2022-07-17T01:27:01;16.73;50.79
64034;SHT31;50280;49.864;8.638;2022-07-17T01:29:35;16.69;50.79
64034;SHT31;50280;49.864;8.638;2022-07-17T01:32:09;16.62;50.89
64034;SHT31;50280;49.864;8.638;2022-07-17T01:34:41;16.59;51.06
64034;SHT31;50280;49.864;8.638;2022-07-17T01:37:15;16.55;51.17
64034;SHT31;50280;49.864;8.638;2022-07-17T01:39:47;16.52;51.27
64034;SHT31;50280;49.864;8.638;2022-07-17T01:42:20;16.44;51.54
64034;SHT31;50280;49.864;8.638;2022-07-17T01:44:54;16.42;51.66
64034;SHT31;50280;49.864;8.638;2022-07-17T01:47:27;16.41;51.63
64034;SHT31;50280;49.864;8.638;2022-07-17T01:50:01;16.35;51.76
64034;SHT31;50280;49.864;8.638;2022-07-17T01:52:39;16.35;51.84
64034;SHT31;50280;49.864;8.638;2022-07-17T01:55:15;16.35;51.90
64034;SHT31;50280;49.864;8.638;2022-07-17T01:57:47;16.33;51.88
64034;SHT31;50280;49.864;8.638;2022-07-17T02:00:20;16.33;52.01
64034;SHT31;50280;49.864;8.638;2022-07-17T02:02:52;16.30;52.11
64034;SHT31;50280;49.864;8.638;2022-07-17T02:05:25;16.28;52.09
64034;SHT31;50280;49.864;8.638;2022-07-17T02:07:59;16.24;52.05
64034;SHT31;50280;49.864;8.638;2022-07-17T02:10:31;16.20;52.15
64034;SHT31;50280;49.864;8.638;2022-07-17T02:13:04;16.23;52.14
64034;SHT31;50280;49.864;8.638;2022-07-17T02:15:37;16.17;52.28
64034;SHT31;50280;49.864;8.638;2022-07-17T02:18:09;16.17;52.44
64034;SHT31;50280;49.864;8.638;2022-07-17T02:20:42;16.13;52.57
64034;SHT31;50280;49.864;8.638;2022-07-17T02:23:15;16.12;52.62
64034;SHT31;50280;49.864;8.638;2022-07-17T02:25:48;16.10;52.62
64034;SHT31;50280;49.864;8.638;2022-07-17T02:28:20;16.06;52.82
64034;SHT31;50280;49.864;8.638;2022-07-17T02:30:53;16.05;52.94
64034;SHT31;50280;49.864;8.638;2022-07-17T02:33:25;16.03;53.20
64034;SHT31;50280;49.864;8.638;2022-07-17T02:35:58;15.99;53.38
64034;SHT31;50280;49.864;8.638;2022-07-17T02:38:32;15.96;53.54
64034;SHT31;50280;49.864;8.638;2022-07-17T02:41:05;15.93;53.61
64034;SHT31;50280;49.864;8.638;2022-07-17T02:43:38;15.95;53.46
64034;SHT31;50280;49.864;8.638;2022-07-17T02:46:11;15.90;53.65
64034;SHT31;50280;49.864;8.638;2022-07-17T02:48:43;15.86;53.71
64034;SHT31;50280;49.864;8.638;2022-07-17T02:51:16;15.85;53.81
64034;SHT31;50280;49.864;8.638;2022-07-17T02:53:50;15.85;53.98
64034;SHT31;50280;49.864;8.638;2022-07-17T02:56:22;15.78;54.13
64034;SHT31;50280;49.864;8.638;2022-07-17T02:58:54;15.73;54.21
64034;SHT31;50280;49.864;8.638;2022-07-17T03:01:26;15.72;54.50
64034;SHT31;50280;49.864;8.638;2022-07-17T03:03:59;15.72;54.42
64034;SHT31;50280;49.864;8.638;2022-07-17T03:06:31;15.69;54.53
64034;SHT31;50280;49.864;8.638;2022-07-17T03:09:05;15.65;54.67
64034;SHT31;50280;49.864;8.638;2022-07-17T03:11:37;15.63;54.87
64034;SHT31;50280;49.864;8.638;2022-07-17T03:14:10;15.62;55.03
64034;SHT31;50280;49.864;8.638;2022-07-17T03:16:42;15.59;55.04
64034;SHT31;50280;49.864;8.638;2022-07-17T03:19:15;15.57;55.05
64034;SHT31;50280;49.864;8.638;2022-07-17T03:21:47;15.55;55.42
64034;SHT31;50280;49.864;8.638;2022-07-17T03:24:21;15.51;55.40
64034;SHT31;50280;49.864;8.638;2022-07-17T03:26:53;15.50;55.49
64034;SHT31;50280;49.864;8.638;2022-07-17T03:29:26;15.51;55.67
64034;SHT31;50280;49.864;8.638;2022-07-17T03:31:58;15.47;55.77
64034;SHT31;50280;49.864;8.638;2022-07-17T03:34:31;15.47;55.83
64034;SHT31;50280;49.864;8.638;2022-07-17T03:37:04;15.43;56.12
64034;SHT31;50280;49.864;8.638;2022-07-17T03:39:39;15.43;56.18
64034;SHT31;50280;49.864;8.638;2022-07-17T03:42:11;15.38;56.23
64034;SHT31;50280;49.864;8.638;2022-07-17T03:44:43;15.33;56.34
64034;SHT31;50280;49.864;8.638;2022-07-17T03:47:16;15.33;56.39
64034;SHT31;50280;49.864;8.638;2022-07-17T03:49:48;15.30;56.48
64034;SHT31;50280;49.864;8.638;2022-07-17T03:52:21;15.30;56.74
64034;SHT31;50280;49.864;8.638;2022-07-17T03:54:55;15.27;56.81
64034;SHT31;50280;49.864;8.638;2022-07-17T03:57:27;15.26;56.76
64034;SHT31;50280;49.864;8.638;2022-07-17T03:59:59;15.24;56.85
64034;SHT31;50280;49.864;8.638;2022-07-17T04:02:32;15.22;56.96
64034;SHT31;50280;49.864;8.638;2022-07-17T04:05:05;15.20;56.96
64034;SHT31;50280;49.864;8.638;2022-07-17T04:07:39;15.17;57.05
64034;SHT31;50280;49.864;8.638;2022-07-17T04:10:15;15.11;57.35
64034;SHT31;50280;49.864;8.638;2022-07-17T04:12:47;15.13;57.56
64034;SHT31;50280;49.864;8.638;2022-07-17T04:15:20;15.11;57.61
64034;SHT31;50280;49.864;8.638;2022-07-17T04:17:52;15.09;57.68
64034;SHT31;50280;49.864;8.638;2022-07-17T04:20:24;15.07;57.89
64034;SHT31;50280;49.864;8.638;2022-07-17T04:22:57;15.07;58.02
64034;SHT31;50280;49.864;8.638;2022-07-17T04:25:31;15.06;58.09
64034;SHT31;50280;49.864;8.638;2022-07-17T04:28:03;15.06;58.23
64034;SHT31;50280;49.864;8.638;2022-07-17T04:30:36;15.10;58.27
64034;SHT31;50280;49.864;8.638;2022-07-17T04:33:10;15.07;58.34
64034;SHT31;50280;49.864;8.638;2022-07-17T04:35:43;15.09;58.45
64034;SHT31;50280;49.864;8.638;2022-07-17T04:38:16;15.09;58.45
64034;SHT31;50280;49.864;8.638;2022-07-17T04:40:49;15.14;58.36
64034;SHT31;50280;49.864;8.638;2022-07-17T04:43:22;15.17;58.57
64034;SHT31;50280;49.864;8.638;2022-07-17T04:45:54;15.17;58.40
64034;SHT31;50280;49.864;8.638;2022-07-17T04:48:27;15.22;58.47
64034;SHT31;50280;49.864;8.638;2022-07-17T04:50:59;15.27;58.32
64034;SHT31;50280;49.864;8.638;2022-07-17T04:53:31;15.28;58.28
64034;SHT31;50280;49.864;8.638;2022-07-17T04:56:05;15.30;58.44
64034;SHT31;50280;49.864;8.638;2022-07-17T04:58:38;15.31;58.39
64034;SHT31;50280;49.864;8.638;2022-07-17T05:01:10;15.31;58.43
64034;SHT31;50280;49.864;8.638;2022-07-17T05:03:43;15.34;58.58
64034;SHT31;50280;49.864;8.638;2022-07-17T05:06:15;15.33;58.74
64034;SHT31;50280;49.864;8.638;2022-07-17T05:08:48;15.35;58.82
64034;SHT31;50280;49.864;8.638;2022-07-17T05:11:21;15.37;58.75
64034;SHT31;50280;49.864;8.638;2022-07-17T05:13:54;15.35;58.94
64034;SHT31;50280;49.864;8.638;2022-07-17T05:16:26;15.38;59.20
64034;SHT31;50280;49.864;8.638;2022-07-17T05:18:59;15.43;59.05
64034;SHT31;50280;49.864;8.638;2022-07-17T05:21:31;15.43;58.88
64034;SHT31;50280;49.864;8.638;2022-07-17T05:24:04;15.43;58.94
64034;SHT31;50280;49.864;8.638;2022-07-17T05:26:38;15.45;59.10
64034;SHT31;50280;49.864;8.638;2022-07-17T05:29:10;15.51;58.74
64034;SHT31;50280;49.864;8.638;2022-07-17T05:31:43;15.59;58.43
64034;SHT31;50280;49.864;8.638;2022-07-17T05:34:15;15.63;58.19
64034;SHT31;50280;49.864;8.638;2022-07-17T05:36:48;15.69;58.10
64034;SHT31;50280;49.864;8.638;2022-07-17T05:39:20;15.79;57.72
64034;SHT31;50280;49.864;8.638;2022-07-17T05:41:54;15.83;58.02
64034;SHT31;50280;49.864;8.638;2022-07-17T05:44:26;15.93;57.42
64034;SHT31;50280;49.864;8.638;2022-07-17T05:46:59;16.02;57.05
64034;SHT31;50280;49.864;8.638;2022-07-17T05:49:32;16.09;56.55
64034;SHT31;50280;49.864;8.638;2022-07-17T05:52:05;16.14;56.26
64034;SHT31;50280;49.864;8.638;2022-07-17T05:54:37;16.23;55.62
64034;SHT31;50280;49.864;8.638;2022-07-17T05:57:11;16.28;55.70
64034;SHT31;50280;49.864;8.638;2022-07-17T05:59:44;16.38;55.38
64034;SHT31;50280;49.864;8.638;2022-07-17T06:02:16;16.45;55.40
64034;SHT31;50280;49.864;8.638;2022-07-17T06:04:48;16.52;55.31
64034;SHT31;50280;49.864;8.638;2022-07-17T06:07:21;16.58;55.29
64034;SHT31;50280;49.864;8.638;2022-07-17T06:09:53;16.65;55.20
64034;SHT31;50280;49.864;8.638;2022-07-17T06:12:27;16.72;54.97
64034;SHT31;50280;49.864;8.638;2022-07-17T06:14:59;16.82;54.92
64034;SHT31;50280;49.864;8.638;2022-07-17T06:17:32;16.89;54.57
64034;SHT31;50280;49.864;8.638;2022-07-17T06:20:05;16.96;54.05
64034;SHT31;50280;49.864;8.638;2022-07-17T06:22:38;17.05;54.17
64034;SHT31;50280;49.864;8.638;2022-07-17T06:25:12;17.10;53.15
64034;SHT31;50280;49.864;8.638;2022-07-17T06:27:46;17.22;52.36
64034;SHT31;50280;49.864;8.638;2022-07-17T06:30:18;17.33;52.08
64034;SHT31;50280;49.864;8.638;2022-07-17T06:32:51;17.38;52.20
64034;SHT31;50280;49.864;8.638;2022-07-17T06:35:23;17.47;52.90
64034;SHT31;50280;49.864;8.638;2022-07-17T06:37:56;17.58;53.36
64034;SHT31;50280;49.864;8.638;2022-07-17T06:40:28;17.68;52.20
64034;SHT31;50280;49.864;8.638;2022-07-17T06:43:04;17.81;52.36
64034;SHT31;50280;49.864;8.638;2022-07-17T06:45:37;17.97;51.23
64034;SHT31;50280;49.864;8.638;2022-07-17T06:48:09;18.06;50.66
64034;SHT31;50280;49.864;8.638;2022-07-17T06:50:42;18.17;49.93
64034;SHT31;50280;49.864;8.638;2022-07-17T06:53:14;18.30;49.62
64034;SHT31;50280;49.864;8.638;2022-07-17T06:55:47;18.38;49.63
64034;SHT31;50280;49.864;8.638;2022-07-17T06:58:21;18.48;49.11
64034;SHT31;50280;49.864;8.638;2022-07-17T07:00:54;18.58;49.24
64034;SHT31;50280;49.864;8.638;2022-07-17T07:03:26;18.62;49.01
64034;SHT31;50280;49.864;8.638;2022-07-17T07:05:59;18.69;49.53
64034;SHT31;50280;49.864;8.638;2022-07-17T07:08:33;18.76;49.46
64034;SHT31;50280;49.864;8.638;2022-07-17T07:11:06;18.83;48.99
64034;SHT31;50280;49.864;8.638;2022-07-17T07:13:40;18.96;49.03
64034;SHT31;50280;49.864;8.638;2022-07-17T07:16:12;19.07;48.66
64034;SHT31;50280;49.864;8.638;2022-07-17T07:18:45;19.20;48.16
64034;SHT31;50280;49.864;8.638;2022-07-17T07:21:17;19.34;47.88
64034;SHT31;50280;49.864;8.638;2022-07-17T07:23:50;19.50;47.05
64034;SHT31;50280;49.864;8.638;2022-07-17T07:26:23;19.59;47.35
64034;SHT31;50280;49.864;8.638;2022-07-17T07:28:57;19.78;46.93
64034;SHT31;50280;49.864;8.638;2022-07-17T07:31:29;19.87;46.53
64034;SHT31;50280;49.864;8.638;2022-07-17T07:34:02;19.99;45.96
64034;SHT31;50280;49.864;8.638;2022-07-17T07:36:34;20.14;45.02
64034;SHT31;50280;49.864;8.638;2022-07-17T07:39:07;20.28;44.60
64034;SHT31;50280;49.864;8.638;2022-07-17T07:41:39;20.45;44.17
64034;SHT31;50280;49.864;8.638;2022-07-17T07:44:13;20.67;43.57
64034;SHT31;50280;49.864;8.638;2022-07-17T07:46:45;20.86;42.86
64034;SHT31;50280;49.864;8.638;2022-07-17T07:49:18;21.11;42.59
64034;SHT31;50280;49.864;8.638;2022-07-17T07:51:50;21.31;42.25
64034;SHT31;50280;49.864;8.638;2022-07-17T07:54:23;21.50;41.98
64034;SHT31;50280;49.864;8.638;2022-07-17T07:56:55;21.65;40.90
64034;SHT31;50280;49.864;8.638;2022-07-17T07:59:30;21.89;40.63
64034;SHT31;50280;49.864;8.638;2022-07-17T08:02:03;22.05;40.24
64034;SHT31;50280;49.864;8.638;2022-07-17T08:04:36;22.24;39.74
64034;SHT31;50280;49.864;8.638;2022-07-17T08:07:08;22.47;39.10
64034;SHT31;50280;49.864;8.638;2022-07-17T08:09:41;22.69;38.28
64034;SHT31;50280;49.864;8.638;2022-07-17T08:12:13;22.89;38.36
64034;SHT31;50280;49.864;8.638;2022-07-17T08:14:47;23.13;37.35
64034;SHT31;50280;49.864;8.638;2022-07-17T08:17:20;23.37;37.07
64034;SHT31;50280;49.864;8.638;2022-07-17T08:19:52;23.60;37.08
64034;SHT31;50280;49.864;8.638;2022-07-17T08:22:25;23.81;36.53
64034;SHT31;50280;49.864;8.638;2022-07-17T08:24:57;24.05;35.59
64034;SHT31;50280;49.864;8.638;2022-07-17T08:27:34;24.23;34.95
64034;SHT31;50280;49.864;8.638;2022-07-17T08:30:11;24.46;35.05
64034;SHT31;50280;49.864;8.638;2022-07-17T08:32:45;24.68;34.60
64034;SHT31;50280;49.864;8.638;2022-07-17T08:35:18;24.92;34.57
64034;SHT31;50280;49.864;8.638;2022-07-17T08:37:51;25.19;34.02
64034;SHT31;50280;49.864;8.638;2022-07-17T08:40:27;25.44;33.04
64034;SHT31;50280;49.864;8.638;2022-07-17T08:43:04;25.70;31.69
64034;SHT31;50280;49.864;8.638;2022-07-17T08:45:40;25.88;31.30
64034;SHT31;50280;49.864;8.638;2022-07-17T08:48:16;26.05;30.64
64034;SHT31;50280;49.864;8.638;2022-07-17T08:50:50;26.18;31.19
64034;SHT31;50280;49.864;8.638;2022-07-17T08:53:22;26.35;31.43
64034;SHT31;50280;49.864;8.638;2022-07-17T08:55:55;26.48;30.38
64034;SHT31;50280;49.864;8.638;2022-07-17T08:58:27;26.58;29.82
64034;SHT31;50280;49.864;8.638;2022-07-17T09:01:02;26.82;29.54
64034;SHT31;50280;49.864;8.638;2022-07-17T09:03:35;26.99;29.60
64034;SHT31;50280;49.864;8.638;2022-07-17T09:06:17;27.23;29.39
64034;SHT31;50280;49.864;8.638;2022-07-17T09:09:01;27.39;29.79
64034;SHT31;50280;49.864;8.638;2022-07-17T09:11:43;27.58;28.72
64034;SHT31;50280;49.864;8.638;2022-07-17T09:14:19;27.72;29.08
64034;SHT31;50280;49.864;8.638;2022-07-17T09:16:56;27.88;28.79
64034;SHT31;50280;49.864;8.638;2022-07-17T09:19:32;27.98;28.31
64034;SHT31;50280;49.864;8.638;2022-07-17T09:22:10;28.13;28.20
64034;SHT31;50280;49.864;8.638;2022-07-17T09:24:47;28.26;27.85
64034;SHT31;50280;49.864;8.638;2022-07-17T09:27:30;28.36;27.24
64034;SHT31;50280;49.864;8.638;2022-07-17T09:30:07;28.39;27.05
64034;SHT31;50280;49.864;8.638;2022-07-17T09:32:44;28.44;27.07
64034;SHT31;50280;49.864;8.638;2022-07-17T09:35:17;28.47;27.60
64034;SHT31;50280;49.864;8.638;2022-07-17T09:37:51;28.49;27.30
64034;SHT31;50280;49.864;8.638;2022-07-17T09:40:23;28.54;26.82
64034;SHT31;50280;49.864;8.638;2022-07-17T09:42:56;28.54;27.36
64034;SHT31;50280;49.864;8.638;2022-07-17T09:45:31;28.67;26.92
64034;SHT31;50280;49.864;8.638;2022-07-17T09:48:08;28.88;26.62
64034;SHT31;50280;49.864;8.638;2022-07-17T09:50:41;29.15;26.09
64034;SHT31;50280;49.864;8.638;2022-07-17T09:53:16;29.42;25.39
64034;SHT31;50280;49.864;8.638;2022-07-17T09:55:50;29.70;25.66
64034;SHT31;50280;49.864;8.638;2022-07-17T09:58:32;29.98;24.70
64034;SHT31;50280;49.864;8.638;2022-07-17T10:01:10;30.12;24.61
64034;SHT31;50280;49.864;8.638;2022-07-17T10:03:47;30.25;24.25
64034;SHT31;50280;49.864;8.638;2022-07-17T10:06:21;30.40;24.44
64034;SHT31;50280;49.864;8.638;2022-07-17T10:08:55;30.67;23.34
64034;SHT31;50280;49.864;8.638;2022-07-17T10:11:31;30.85;23.89
64034;SHT31;50280;49.864;8.638;2022-07-17T10:14:09;30.98;23.34
64034;SHT31;50280;49.864;8.638;2022-07-17T10:16:45;31.11;23.28
64034;SHT31;50280;49.864;8.638;2022-07-17T10:19:21;31.01;22.46
64034;SHT31;50280;49.864;8.638;2022-07-17T10:21:57;30.88;22.88
64034;SHT31;50280;49.864;8.638;2022-07-17T10:24:31;30.83;23.94
64034;SHT31;50280;49.864;8.638;2022-07-17T10:27:04;30.88;24.00
64034;SHT31;50280;49.864;8.638;2022-07-17T10:29:37;30.98;23.53
64034;SHT31;50280;49.864;8.638;2022-07-17T10:32:15;31.19;23.08
64034;SHT31;50280;49.864;8.638;2022-07-17T10:34:53;31.26;22.27
64034;SHT31;50280;49.864;8.638;2022-07-17T10:37:37;31.23;21.85
64034;SHT31;50280;49.864;8.638;2022-07-17T10:40:16;31.33;21.41
64034;SHT31;50280;49.864;8.638;2022-07-17T10:42:54;31.39;21.74
64034;SHT31;50280;49.864;8.638;2022-07-17T10:45:31;31.53;22.63
64034;SHT31;50280;49.864;8.638;2022-07-17T10:48:08;31.78;21.71
64034;SHT31;50280;49.864;8.638;2022-07-17T10:50:44;32.01;21.48
64034;SHT31;50280;49.864;8.638;2022-07-17T10:53:20;32.19;20.87
64034;SHT31;50280;49.864;8.638;2022-07-17T10:55:56;32.49;20.88
64034;SHT31;50280;49.864;8.638;2022-07-17T10:58:32;32.87;20.92
64034;SHT31;50280;49.864;8.638;2022-07-17T11:01:08;33.11;21.13
64034;SHT31;50280;49.864;8.638;2022-07-17T11:03:44;33.32;20.11
64034;SHT31;50280;49.864;8.638;2022-07-17T11:06:24;33.43;19.86
64034;SHT31;50280;49.864;8.638;2022-07-17T11:09:01;33.63;19.80
64034;SHT31;50280;49.864;8.638;2022-07-17T11:11:39;33.78;19.91
64034;SHT31;50280;49.864;8.638;2022-07-17T11:14:16;33.81;19.72
64034;SHT31;50280;49.864;8.638;2022-07-17T11:16:52;33.92;19.81
64034;SHT31;50280;49.864;8.638;2022-07-17T11:19:29;34.03;19.47
64034;SHT31;50280;49.864;8.638;2022-07-17T11:22:07;34.15;19.13
64034;SHT31;50280;49.864;8.638;2022-07-17T11:24:44;34.28;18.17
64034;SHT31;50280;49.864;8.638;2022-07-17T11:27:20;34.47;17.96
64034;SHT31;50280;49.864;8.638;2022-07-17T11:29:56;34.63;18.16
64034;SHT31;50280;49.864;8.638;2022-07-17T11:32:33;34.83;18.17
64034;SHT31;50280;49.864;8.638;2022-07-17T11:35:14;35.07;18.00
64034;SHT31;50280;49.864;8.638;2022-07-17T11:37:51;35.06;18.42
64034;SHT31;50280;49.864;8.638;2022-07-17T11:40:23;34.99;18.42
64034;SHT31;50280;49.864;8.638;2022-07-17T11:42:59;34.97;17.60
64034;SHT31;50280;49.864;8.638;2022-07-17T11:45:32;35.06;17.88
64034;SHT31;50280;49.864;8.638;2022-07-17T11:48:05;34.99;17.30
64034;SHT31;50280;49.864;8.638;2022-07-17T11:50:38;34.96;18.09
64034;SHT31;50280;49.864;8.638;2022-07-17T11:53:12;35.01;16.90
64034;SHT31;50280;49.864;8.638;2022-07-17T11:55:45;34.99;16.88
64034;SHT31;50280;49.864;8.638;2022-07-17T11:58:17;34.51;16.71
64034;SHT31;50280;49.864;8.638;2022-07-17T12:01:00;34.10;17.17
64034;SHT31;50280;49.864;8.638;2022-07-17T12:03:35;34.00;18.44
64034;SHT31;50280;49.864;8.638;2022-07-17T12:06:08;34.00;17.87
64034;SHT31;50280;49.864;8.638;2022-07-17T12:08:50;34.00;17.99
64034;SHT31;50280;49.864;8.638;2022-07-17T12:11:23;34.22;17.37
64034;SHT31;50280;49.864;8.638;2022-07-17T12:14:03;34.44;17.52
64034;SHT31;50280;49.864;8.638;2022-07-17T12:16:37;34.69;17.26
64034;SHT31;50280;49.864;8.638;2022-07-17T12:19:11;34.75;16.74
64034;SHT31;50280;49.864;8.638;2022-07-17T12:21:49;34.65;16.88
64034;SHT31;50280;49.864;8.638;2022-07-17T12:24:33;34.73;16.51
64034;SHT31;50280;49.864;8.638;2022-07-17T12:27:12;35.08;15.83
64034;SHT31;50280;49.864;8.638;2022-07-17T12:29:46;35.31;15.83
64034;SHT31;50280;49.864;8.638;2022-07-17T12:32:18;35.59;15.09
64034;SHT31;50280;49.864;8.638;2022-07-17T12:34:51;35.85;15.07
64034;SHT31;50280;49.864;8.638;2022-07-17T12:37:23;35.90;14.75
64034;SHT31;50280;49.864;8.638;2022-07-17T12:39:57;35.97;14.52
64034;SHT31;50280;49.864;8.638;2022-07-17T12:42:30;36.03;15.08
64034;SHT31;50280;49.864;8.638;2022-07-17T12:45:03;35.99;15.56
64034;SHT31;50280;49.864;8.638;2022-07-17T12:47:36;35.80;14.96
64034;SHT31;50280;49.864;8.638;2022-07-17T12:50:09;35.89;14.70
64034;SHT31;50280;49.864;8.638;2022-07-17T12:52:41;35.99;14.58
64034;SHT31;50280;49.864;8.638;2022-07-17T12:55:15;36.20;14.51
64034;SHT31;50280;49.864;8.638;2022-07-17T12:57:47;36.45;14.60
64034;SHT31;50280;49.864;8.638;2022-07-17T13:00:20;36.52;14.76
64034;SHT31;50280;49.864;8.638;2022-07-17T13:02:52;36.58;14.68
64034;SHT31;50280;49.864;8.638;2022-07-17T13:05:25;36.62;14.03
64034;SHT31;50280;49.864;8.638;2022-07-17T13:07:57;36.52;13.36
64034;SHT31;50280;49.864;8.638;2022-07-17T13:10:33;36.44;13.95
64034;SHT31;50280;49.864;8.638;2022-07-17T13:13:06;36.41;13.88
64034;SHT31;50280;49.864;8.638;2022-07-17T13:15:40;36.45;13.85
64034;SHT31;50280;49.864;8.638;2022-07-17T13:18:12;36.35;14.41
64034;SHT31;50280;49.864;8.638;2022-07-17T13:20:44;36.20;14.45
64034;SHT31;50280;49.864;8.638;2022-07-17T13:23:17;36.14;14.90
64034;SHT31;50280;49.864;8.638;2022-07-17T13:25:51;36.21;14.37
64034;SHT31;50280;49.864;8.638;2022-07-17T13:28:24;36.40;14.34
64034;SHT31;50280;49.864;8.638;2022-07-17T13:30:56;36.60;14.01
64034;SHT31;50280;49.864;8.638;2022-07-17T13:33:30;36.90;13.30
64034;SHT31;50280;49.864;8.638;2022-07-17T13:36:02;37.16;13.01
64034;SHT31;50280;49.864;8.638;2022-07-17T13:38:35;37.27;12.93
64034;SHT31;50280;49.864;8.638;2022-07-17T13:41:09;37.57;12.52
64034;SHT31;50280;49.864;8.638;2022-07-17T13:43:42;37.60;11.70
64034;SHT31;50280;49.864;8.638;2022-07-17T13:46:14;37.48;12.17
64034;SHT31;50280;49.864;8.638;2022-07-17T13:48:46;37.44;12.46
64034;SHT31;50280;49.864;8.638;2022-07-17T13:51:19;37.47;12.57
64034;SHT31;50280;49.864;8.638;2022-07-17T13:53:52;37.57;12.01
64034;SHT31;50280;49.864;8.638;2022-07-17T13:56:26;37.71;11.98
64034;SHT31;50280;49.864;8.638;2022-07-17T13:58:58;37.53;12.69
64034;SHT31;50280;49.864;8.638;2022-07-17T14:01:31;37.13;13.07
64034;SHT31;50280;49.864;8.638;2022-07-17T14:04:04;36.99;13.76
64034;SHT31;50280;49.864;8.638;2022-07-17T14:06:37;37.10;12.33
64034;SHT31;50280;49.864;8.638;2022-07-17T14:09:09;37.10;12.75
64034;SHT31;50280;49.864;8.638;2022-07-17T14:11:43;37.30;15.37
64034;SHT31;50280;49.864;8.638;2022-07-17T14:14:16;37.50;13.31
64034;SHT31;50280;49.864;8.638;2022-07-17T14:16:48;37.61;13.19
64034;SHT31;50280;49.864;8.638;2022-07-17T14:19:21;37.74;12.86
64034;SHT31;50280;49.864;8.638;2022-07-17T14:21:53;37.92;14.11
64034;SHT31;50280;49.864;8.638;2022-07-17T14:24:25;38.08;12.01
64034;SHT31;50280;49.864;8.638;2022-07-17T14:26:59;38.19;11.03
64034;SHT31;50280;49.864;8.638;2022-07-17T14:29:32;38.17;13.30
64034;SHT31;50280;49.864;8.638;2022-07-17T14:32:05;38.06;11.87
64034;SHT31;50280;49.864;8.638;2022-07-17T14:34:38;38.17;12.63
64034;SHT31;50280;49.864;8.638;2022-07-17T14:37:10;38.05;12.84
64034;SHT31;50280;49.864;8.638;2022-07-17T14:39:42;37.93;13.64
64034;SHT31;50280;49.864;8.638;2022-07-17T14:42:16;37.95;12.94
64034;SHT31;50280;49.864;8.638;2022-07-17T14:44:49;37.96;11.88
64034;SHT31;50280;49.864;8.638;2022-07-17T14:47:21;38.01;10.49
64034;SHT31;50280;49.864;8.638;2022-07-17T14:49:54;38.01;10.45
64034;SHT31;50280;49.864;8.638;2022-07-17T14:52:27;37.90;10.12
64034;SHT31;50280;49.864;8.638;2022-07-17T14:54:59;37.76;10.41
64034;SHT31;50280;49.864;8.638;2022-07-17T14:57:33;37.62;10.40
64034;SHT31;50280;49.864;8.638;2022-07-17T15:00:07;37.60;10.49
64034;SHT31;50280;49.864;8.638;2022-07-17T15:02:41;37.47;10.15
64034;SHT31;50280;49.864;8.638;2022-07-17T15:05:13;37.34;10.15
64034;SHT31;50280;49.864;8.638;2022-07-17T15:07:46;36.99;11.05
64034;SHT31;50280;49.864;8.638;2022-07-17T15:10:18;36.75;10.50
64034;SHT31;50280;49.864;8.638;2022-07-17T15:12:52;36.48;10.72
64034;SHT31;50280;49.864;8.638;2022-07-17T15:15:24;36.31;10.82
64034;SHT31;50280;49.864;8.638;2022-07-17T15:17:57;36.27;11.83
64034;SHT31;50280;49.864;8.638;2022-07-17T15:20:29;36.25;11.52
64034;SHT31;50280;49.864;8.638;2022-07-17T15:23:02;36.28;11.69
64034;SHT31;50280;49.864;8.638;2022-07-17T15:25:35;36.19;11.02
64034;SHT31;50280;49.864;8.638;2022-07-17T15:28:08;36.04;11.70
64034;SHT31;50280;49.864;8.638;2022-07-17T15:30:41;35.85;12.24
64034;SHT31;50280;49.864;8.638;2022-07-17T15:33:14;35.66;12.79
64034;SHT31;50280;49.864;8.638;2022-07-17T15:35:47;35.48;14.79
64034;SHT31;50280;49.864;8.638;2022-07-17T15:38:19;35.41;13.01
64034;SHT31;50280;49.864;8.638;2022-07-17T15:40:52;35.26;13.51
64034;SHT31;50280;49.864;8.638;2022-07-17T15:43:26;35.06;12.74
64034;SHT31;50280;49.864;8.638;2022-07-17T15:45:58;34.86;13.01
64034;SHT31;50280;49.864;8.638;2022-07-17T15:48:31;34.52;12.12
64034;SHT31;50280;49.864;8.638;2022-07-17T15:51:03;34.20;12.35
64034;SHT31;50280;49.864;8.638;2022-07-17T15:53:36;33.96;12.14
64034;SHT31;50280;49.864;8.638;2022-07-17T15:56:08;33.76;12.79
64034;SHT31;50280;49.864;8.638;2022-07-17T15:58:42;33.65;14.32
64034;SHT31;50280;49.864;8.638;2022-07-17T16:01:15;33.62;14.58
64034;SHT31;50280;49.864;8.638;2022-07-17T16:03:47;33.58;14.46
64034;SHT31;50280;49.864;8.638;2022-07-17T16:06:20;33.48;12.94
64034;SHT31;50280;49.864;8.638;2022-07-17T16:08:52;33.32;13.79